Time;durP1;ratioP1;P1;durP2;ratioP2;P2;SDS_P1;SDS_P2;PMS_P1;PMS_P2;Temp;Humidity;BMP_temperature;BMP_pressure;BME280_temperature;BME280_humidity;BME280_pressure;Samples;Min_cycle;Max_cycle;Signal;HPM_P1;HPM_P2
2022/05/05 00:01:50;;;;;;;9.63;7.13;;;13.60;75.20;;;;;;4978146;28;20487;-76
2022/05/05 00:04:19;;;;;;;7.07;5.83;;;13.60;74.90;;;;;;4993775;28;20467;-75
2022/05/05 00:06:46;;;;;;;7.43;6.77;;;13.70;74.60;;;;;;4977393;28;20820;-75
2022/05/05 00:09:13;;;;;;;8.70;7.70;;;13.70;73.90;;;;;;4977374;28;20546;-75
2022/05/05 00:14:25;;;;;;;7.23;6.63;;;13.70;73.30;;;;;;4995315;28;20468;-76
2022/05/05 00:16:52;;;;;;;7.35;6.70;;;13.80;73.10;;;;;;4984947;28;20425;-75
2022/05/05 00:19:20;;;;;;;8.00;7.23;;;13.80;72.60;;;;;;4996744;28;20268;-75
2022/05/05 00:21:47;;;;;;;7.50;6.70;;;13.80;72.00;;;;;;4993601;28;20480;-75
2022/05/05 00:24:16;;;;;;;11.53;6.93;;;13.80;71.90;;;;;;4999715;28;20459;-75
2022/05/05 00:26:43;;;;;;;7.83;7.03;;;13.80;71.70;;;;;;5007038;28;20473;-76
2022/05/05 00:29:10;;;;;;;7.60;6.80;;;13.70;72.50;;;;;;4990324;28;20462;-76
2022/05/05 00:31:37;;;;;;;8.03;7.30;;;13.80;73.30;;;;;;4983752;28;20578;-76
2022/05/05 00:34:04;;;;;;;8.60;7.80;;;13.80;73.40;;;;;;4997829;28;20500;-75
2022/05/05 00:36:32;;;;;;;7.67;6.90;;;13.80;73.50;;;;;;4998598;28;20513;-75
2022/05/05 00:38:59;;;;;;;8.33;7.53;;;13.80;73.30;;;;;;4995202;28;20514;-76
2022/05/05 00:41:26;;;;;;;9.20;7.18;;;13.90;73.20;;;;;;4983521;28;20476;-75
2022/05/05 00:43:53;;;;;;;8.60;7.30;;;13.90;73.60;;;;;;4974364;28;20300;-75
2022/05/05 00:46:19;;;;;;;7.50;6.73;;;13.80;74.40;;;;;;4983297;28;20448;-75
2022/05/05 00:48:46;;;;;;;7.87;7.13;;;13.70;75.30;;;;;;4993326;28;20434;-75
2022/05/05 00:51:13;;;;;;;7.00;6.40;;;13.70;75.40;;;;;;4985739;28;20726;-76
2022/05/05 00:53:41;;;;;;;7.97;7.28;;;13.60;76.50;;;;;;4974229;28;21048;-75
2022/05/05 00:56:11;;;;;;;8.00;7.20;;;13.50;77.20;;;;;;4979743;28;20661;-75
2022/05/05 00:58:39;;;;;;;8.00;7.30;;;13.50;78.30;;;;;;4988994;28;20514;-75
2022/05/05 01:01:07;;;;;;;8.30;7.60;;;13.50;78.50;;;;;;4974727;28;20488;-75
2022/05/05 01:03:35;;;;;;;8.33;7.63;;;13.40;78.50;;;;;;4988325;28;21050;-76
2022/05/05 01:06:02;;;;;;;8.20;7.50;;;13.40;79.40;;;;;;4997329;28;20451;-76
2022/05/05 01:08:29;;;;;;;8.35;7.55;;;13.40;79.40;;;;;;5001444;28;20208;-76
2022/05/05 01:10:57;;;;;;;9.23;8.43;;;13.40;79.40;;;;;;4996432;28;20238;-76
2022/05/05 01:13:25;;;;;;;9.13;8.20;;;13.40;79.30;;;;;;4984849;28;20236;-76
2022/05/05 01:15:54;;;;;;;8.90;8.10;;;13.40;79.90;;;;;;4980514;28;20507;-76
2022/05/05 01:18:21;;;;;;;12.25;7.93;;;13.40;80.00;;;;;;4975725;28;20237;-76
2022/05/05 01:20:49;;;;;;;8.65;7.80;;;13.30;80.30;;;;;;4982186;28;20243;-76
2022/05/05 01:23:18;;;;;;;8.97;7.87;;;13.30;80.30;;;;;;5004822;28;20208;-76
2022/05/05 01:28:31;;;;;;;8.40;7.60;;;13.30;80.30;;;;;;4993878;28;20409;-76
2022/05/05 01:30:58;;;;;;;9.63;8.73;;;13.30;79.70;;;;;;4991559;28;20248;-76
2022/05/05 01:33:26;;;;;;;8.60;7.80;;;13.30;80.60;;;;;;4992847;28;20315;-76
2022/05/05 01:35:54;;;;;;;8.32;7.63;;;13.20;81.30;;;;;;4978813;28;20205;-76
2022/05/05 01:38:24;;;;;;;9.50;8.50;;;13.20;82.00;;;;;;4973628;28;20248;-76
2022/05/05 01:40:51;;;;;;;9.13;8.15;;;13.20;82.60;;;;;;4986217;28;20311;-76
2022/05/05 01:43:21;;;;;;;10.25;9.25;;;13.10;83.30;;;;;;4992818;28;20287;-76
2022/05/05 01:45:48;;;;;;;10.38;9.20;;;13.10;83.30;;;;;;4982144;28;20210;-76
2022/05/05 01:48:15;;;;;;;9.27;8.32;;;13.00;84.20;;;;;;4977562;28;20561;-76
2022/05/05 01:50:43;;;;;;;9.88;8.32;;;12.90;85.60;;;;;;4987204;28;20598;-76
2022/05/05 01:53:10;;;;;;;9.60;8.75;;;12.80;86.70;;;;;;4996590;28;20232;-76
2022/05/05 01:55:38;;;;;;;9.15;8.35;;;12.70;88.40;;;;;;4988557;28;20281;-76
2022/05/05 01:58:05;;;;;;;10.73;9.65;;;12.70;89.80;;;;;;4987687;28;20232;-76
2022/05/05 02:00:32;;;;;;;10.70;9.50;;;12.60;90.50;;;;;;4999565;28;20298;-75
2022/05/05 02:02:59;;;;;;;11.43;9.70;;;12.60;91.00;;;;;;4997508;28;20549;-75
2022/05/05 02:05:26;;;;;;;11.20;10.05;;;12.60;91.30;;;;;;5001081;28;20208;-75
2022/05/05 02:07:53;;;;;;;11.00;10.02;;;12.60;91.90;;;;;;4984870;28;20617;-75
2022/05/05 02:10:21;;;;;;;12.02;10.18;;;12.60;92.20;;;;;;4981323;28;20234;-75
2022/05/05 02:12:51;;;;;;;10.65;9.65;;;12.60;92.40;;;;;;4986215;28;20221;-74
2022/05/05 02:15:18;;;;;;;11.05;10.05;;;12.60;92.20;;;;;;4985456;28;20236;-75
2022/05/05 02:17:45;;;;;;;11.13;10.13;;;12.70;92.00;;;;;;5000637;28;20272;-75
2022/05/05 02:20:13;;;;;;;10.07;8.98;;;12.60;91.60;;;;;;4998419;28;20200;-76
2022/05/05 02:22:40;;;;;;;10.82;9.93;;;12.60;91.80;;;;;;4998657;28;20219;-76
2022/05/05 02:25:08;;;;;;;9.38;8.57;;;12.60;92.00;;;;;;5000094;28;20236;-75
2022/05/05 02:27:50;;;;;;;11.65;10.45;;;12.60;92.20;;;;;;4982162;28;20217;-76
2022/05/05 02:30:18;;;;;;;9.73;8.82;;;12.60;92.00;;;;;;4989810;28;20205;-75
2022/05/05 02:32:45;;;;;;;10.32;9.38;;;12.60;92.10;;;;;;5004446;28;20211;-75
2022/05/05 02:35:12;;;;;;;11.98;9.55;;;12.60;92.20;;;;;;4996521;28;20201;-75
2022/05/05 02:40:24;;;;;;;10.20;9.20;;;12.80;91.30;;;;;;4999906;28;20227;-75
2022/05/05 02:42:52;;;;;;;11.35;10.15;;;12.80;90.60;;;;;;4993953;28;20634;-75
2022/05/05 02:45:19;;;;;;;10.32;9.30;;;12.80;90.50;;;;;;4976105;28;20279;-75
2022/05/05 02:47:47;;;;;;;9.30;8.48;;;12.90;89.80;;;;;;4976661;28;20209;-75
2022/05/05 02:50:14;;;;;;;9.40;8.50;;;12.90;88.70;;;;;;4975293;28;20276;-75
2022/05/05 02:52:41;;;;;;;8.45;7.65;;;13.00;87.70;;;;;;4975440;28;20435;-76
2022/05/05 02:55:07;;;;;;;9.05;8.15;;;13.00;87.20;;;;;;4975392;28;20227;-75
2022/05/05 02:57:34;;;;;;;9.35;8.52;;;13.00;86.90;;;;;;4993547;28;20212;-76
2022/05/05 03:00:04;;;;;;;10.40;8.75;;;13.00;86.20;;;;;;4994056;28;20571;-76
2022/05/05 03:02:31;;;;;;;10.07;9.10;;;13.00;86.40;;;;;;4994698;28;20287;-75
2022/05/05 03:04:58;;;;;;;9.57;8.68;;;13.00;85.80;;;;;;4987478;28;20197;-75
2022/05/05 03:07:25;;;;;;;10.32;9.25;;;13.00;85.20;;;;;;4975068;28;20251;-75
2022/05/05 03:09:52;;;;;;;10.05;9.05;;;13.00;85.20;;;;;;4980446;28;20232;-75
2022/05/05 03:12:19;;;;;;;10.38;9.27;;;13.00;85.40;;;;;;4994248;28;20236;-76
2022/05/05 03:14:47;;;;;;;9.63;7.95;;;13.00;85.40;;;;;;4994337;28;20232;-75
2022/05/05 03:17:15;;;;;;;9.95;8.95;;;13.00;86.10;;;;;;4994341;28;20732;-75
2022/05/05 03:19:42;;;;;;;9.80;8.90;;;12.90;86.70;;;;;;4993878;28;20220;-76
2022/05/05 03:22:09;;;;;;;9.52;8.73;;;12.90;86.90;;;;;;4994478;28;20225;-75
2022/05/05 03:24:36;;;;;;;9.73;8.65;;;12.90;87.00;;;;;;4975108;28;20213;-76
2022/05/05 03:27:04;;;;;;;9.70;8.75;;;12.90;87.30;;;;;;4974849;28;20209;-76
2022/05/05 03:29:31;;;;;;;10.10;9.23;;;12.90;87.90;;;;;;4992473;28;20574;-76
2022/05/05 03:31:58;;;;;;;9.50;8.65;;;12.90;88.20;;;;;;4994071;28;20232;-75
2022/05/05 03:34:29;;;;;;;10.20;9.23;;;12.90;87.60;;;;;;4976926;28;20268;-76
2022/05/05 03:36:56;;;;;;;10.70;9.70;;;12.80;88.30;;;;;;4974487;28;20228;-76
2022/05/05 03:39:23;;;;;;;11.27;9.90;;;12.80;89.00;;;;;;4974773;28;20213;-76
2022/05/05 03:41:50;;;;;;;16.17;9.45;;;12.80;89.70;;;;;;4988596;28;20221;-76
2022/05/05 03:44:17;;;;;;;11.07;10.07;;;12.80;90.20;;;;;;4994654;28;20201;-75
2022/05/05 03:46:43;;;;;;;11.48;10.40;;;12.80;90.50;;;;;;4982002;28;20205;-75
2022/05/05 03:49:11;;;;;;;10.75;9.63;;;12.80;90.40;;;;;;4974762;28;20295;-76
2022/05/05 03:51:39;;;;;;;11.48;10.27;;;12.80;90.00;;;;;;4985405;28;20258;-75
2022/05/05 03:54:06;;;;;;;11.73;10.63;;;12.80;90.20;;;;;;4994899;28;20246;-76
2022/05/05 03:56:33;;;;;;;11.48;10.48;;;12.80;90.10;;;;;;4986246;28;20209;-76
2022/05/05 03:59:01;;;;;;;11.13;10.10;;;12.80;90.10;;;;;;4978144;28;20278;-75
2022/05/05 04:01:28;;;;;;;10.20;9.25;;;12.80;90.10;;;;;;5003233;28;20373;-77
2022/05/05 04:03:55;;;;;;;11.85;9.80;;;12.80;90.10;;;;;;4996824;28;20756;-76
2022/05/05 04:06:22;;;;;;;9.68;8.77;;;12.70;90.30;;;;;;4977924;28;20219;-76
2022/05/05 04:08:50;;;;;;;9.95;9.05;;;12.70;90.10;;;;;;4975171;28;20209;-76
2022/05/05 04:11:17;;;;;;;11.35;10.35;;;12.70;90.00;;;;;;4976243;28;20241;-77
2022/05/05 04:13:44;;;;;;;11.15;10.15;;;12.60;89.80;;;;;;4979506;28;20244;-76
2022/05/05 04:16:11;;;;;;;10.80;9.57;;;12.60;90.40;;;;;;4996268;28;20210;-75
2022/05/05 04:18:38;;;;;;;10.23;9.30;;;12.60;90.50;;;;;;4978554;28;20580;-76
2022/05/05 04:21:05;;;;;;;10.43;9.52;;;12.50;90.50;;;;;;4978884;28;20229;-76
2022/05/05 04:23:33;;;;;;;10.70;9.70;;;12.50;90.50;;;;;;4979024;28;20201;-76
2022/05/05 04:26:01;;;;;;;12.05;10.13;;;12.50;90.90;;;;;;4978505;28;20272;-76
2022/05/05 04:28:29;;;;;;;11.40;10.35;;;12.50;91.20;;;;;;4980219;28;20209;-75
2022/05/05 04:30:56;;;;;;;11.52;10.40;;;12.60;91.10;;;;;;4980959;28;20319;-76
2022/05/05 04:33:23;;;;;;;10.77;9.68;;;12.60;90.50;;;;;;4975220;28;20301;-76
2022/05/05 04:35:50;;;;;;;10.43;9.45;;;12.70;90.50;;;;;;4986031;28;20217;-77
2022/05/05 04:38:17;;;;;;;10.13;9.15;;;12.70;89.90;;;;;;4986837;28;20210;-75
2022/05/05 04:40:44;;;;;;;10.57;9.63;;;12.70;89.40;;;;;;4974960;28;20232;-76
2022/05/05 04:43:12;;;;;;;9.60;8.75;;;12.70;88.70;;;;;;4987740;28;20553;-76
2022/05/05 04:45:39;;;;;;;9.93;8.90;;;12.80;88.70;;;;;;5010433;28;20228;-75
2022/05/05 04:48:07;;;;;;;10.95;9.95;;;12.80;88.10;;;;;;5000880;28;20292;-77
2022/05/05 04:50:34;;;;;;;9.85;8.75;;;12.80;87.40;;;;;;4993104;28;20257;-77
2022/05/05 04:53:00;;;;;;;10.60;9.60;;;12.90;86.50;;;;;;5006369;28;20280;-76
2022/05/05 04:55:27;;;;;;;9.93;8.85;;;13.00;83.40;;;;;;5013801;28;20498;-76
2022/05/05 04:57:54;;;;;;;9.68;8.77;;;13.00;83.20;;;;;;5011699;28;20231;-76
2022/05/05 05:00:25;;;;;;;9.93;9.13;;;13.00;83.70;;;;;;5011758;28;20239;-76
2022/05/05 05:02:52;;;;;;;9.45;8.55;;;13.10;83.30;;;;;;5014916;28;20611;-76
2022/05/05 05:05:19;;;;;;;10.80;9.05;;;13.20;83.40;;;;;;5010778;28;20612;-75
2022/05/05 05:07:46;;;;;;;10.07;9.07;;;13.30;81.10;;;;;;4993008;28;20224;-76
2022/05/05 05:10:13;;;;;;;9.90;9.00;;;13.50;79.50;;;;;;4983500;28;20219;-76
2022/05/05 05:12:40;;;;;;;10.15;9.18;;;13.50;78.50;;;;;;4990445;28;20442;-76
2022/05/05 05:15:08;;;;;;;9.50;8.60;;;13.50;78.30;;;;;;4991619;28;20289;-76
2022/05/05 05:17:36;;;;;;;9.00;8.15;;;13.40;78.10;;;;;;4992642;28;20299;-76
2022/05/05 05:20:04;;;;;;;10.10;9.03;;;13.40;77.80;;;;;;4980262;28;20686;-76
2022/05/05 05:22:31;;;;;;;10.30;9.20;;;13.50;78.40;;;;;;4981866;28;20435;-77
2022/05/05 05:24:58;;;;;;;12.52;9.15;;;13.50;77.80;;;;;;4981702;28;20424;-77
2022/05/05 05:27:25;;;;;;;9.82;8.93;;;13.40;77.40;;;;;;4981012;28;20205;-76
2022/05/05 05:29:52;;;;;;;10.40;9.30;;;13.50;78.30;;;;;;4995353;28;20208;-76
2022/05/05 05:32:19;;;;;;;10.90;9.80;;;13.50;77.50;;;;;;5000006;28;20675;-77
2022/05/05 05:34:47;;;;;;;11.27;9.00;;;13.60;77.40;;;;;;4999261;28;20620;-76
2022/05/05 05:37:13;;;;;;;9.50;8.67;;;13.60;77.20;;;;;;4998545;28;20724;-75
2022/05/05 05:39:40;;;;;;;10.90;9.87;;;13.70;76.80;;;;;;4992257;28;20495;-75
2022/05/05 05:42:08;;;;;;;10.70;9.60;;;13.70;76.10;;;;;;4978580;28;20451;-76
2022/05/05 05:44:35;;;;;;;10.70;9.70;;;13.80;75.40;;;;;;4983145;28;20322;-75
2022/05/05 05:47:02;;;;;;;12.47;9.57;;;13.80;75.40;;;;;;4997905;28;20973;-75
2022/05/05 05:49:29;;;;;;;14.10;9.87;;;13.80;75.40;;;;;;4995357;28;20563;-75
2022/05/05 05:51:58;;;;;;;10.10;9.20;;;13.70;75.40;;;;;;4979175;28;20979;-77
2022/05/05 05:54:25;;;;;;;11.07;9.87;;;13.70;75.40;;;;;;4980062;28;20486;-76
2022/05/05 05:56:51;;;;;;;11.20;9.17;;;13.80;75.60;;;;;;4982193;28;20463;-77
2022/05/05 05:59:18;;;;;;;11.30;9.50;;;13.80;75.50;;;;;;4979349;28;20445;-76
2022/05/05 06:04:30;;;;;;;15.10;10.80;;;13.80;75.40;;;;;;4998157;28;20435;-76
2022/05/05 06:06:59;;;;;;;11.18;9.95;;;13.70;75.70;;;;;;4997983;28;20490;-75
2022/05/05 06:09:26;;;;;;;12.60;9.97;;;13.70;76.20;;;;;;4997654;28;20209;-76
2022/05/05 06:11:53;;;;;;;9.82;8.93;;;13.80;75.90;;;;;;4992779;28;20506;-76
2022/05/05 06:14:19;;;;;;;11.18;9.57;;;13.90;76.30;;;;;;4995555;28;20314;-75
2022/05/05 06:16:46;;;;;;;10.97;9.97;;;13.90;75.50;;;;;;4997086;28;20292;-75
2022/05/05 06:19:13;;;;;;;11.03;9.93;;;13.80;75.40;;;;;;4996678;28;20518;-76
2022/05/05 06:21:40;;;;;;;13.43;10.17;;;13.80;75.40;;;;;;4996654;28;20954;-76
2022/05/05 06:24:09;;;;;;;10.90;9.73;;;13.80;75.40;;;;;;4990395;28;20467;-76
2022/05/05 06:26:36;;;;;;;10.83;9.77;;;13.80;75.90;;;;;;4977950;28;20454;-76
2022/05/05 06:29:04;;;;;;;12.20;10.93;;;13.80;75.70;;;;;;4996935;28;20451;-77
2022/05/05 06:31:30;;;;;;;11.85;10.65;;;13.90;75.50;;;;;;4993226;28;20240;-76
2022/05/05 06:33:57;;;;;;;17.13;10.17;;;13.80;76.50;;;;;;5011335;28;20291;-76
2022/05/05 06:36:24;;;;;;;13.57;11.02;;;13.80;76.40;;;;;;4976343;28;20499;-75
2022/05/05 06:38:52;;;;;;;11.80;10.00;;;13.90;76.70;;;;;;4995330;28;20200;-76
2022/05/05 06:41:21;;;;;;;11.60;9.80;;;13.90;75.80;;;;;;4998361;28;20453;-76
2022/05/05 06:43:48;;;;;;;11.83;10.63;;;14.00;75.80;;;;;;5000611;28;20461;-76
2022/05/05 06:46:15;;;;;;;12.57;10.73;;;14.00;76.80;;;;;;4994853;28;20913;-77
2022/05/05 06:48:42;;;;;;;13.00;11.20;;;14.10;75.70;;;;;;4993593;28;20478;-76
2022/05/05 06:51:09;;;;;;;12.60;11.30;;;14.00;75.60;;;;;;4993697;28;20500;-76
2022/05/05 06:53:35;;;;;;;11.20;10.10;;;14.00;75.60;;;;;;5006630;28;20453;-75
2022/05/05 06:56:02;;;;;;;12.77;11.40;;;14.10;74.00;;;;;;5023913;28;20484;-77
2022/05/05 06:58:30;;;;;;;11.73;10.63;;;14.00;71.20;;;;;;5006366;28;20456;-75
2022/05/05 07:03:42;;;;;;;14.70;11.83;;;14.10;71.30;;;;;;5005611;28;20459;-77
2022/05/05 07:06:10;;;;;;;13.93;11.23;;;14.10;70.60;;;;;;5006465;28;20430;-76
2022/05/05 07:11:21;;;;;;;15.27;11.63;;;14.00;67.70;;;;;;4994979;28;20509;-76
2022/05/05 07:13:50;;;;;;;15.07;11.70;;;14.00;65.80;;;;;;4995685;28;20831;-75
2022/05/05 07:16:17;;;;;;;13.50;10.73;;;14.00;65.10;;;;;;4994479;28;20546;-75
2022/05/05 07:18:44;;;;;;;11.63;10.53;;;14.00;65.70;;;;;;4986971;28;20559;-75
2022/05/05 07:21:11;;;;;;;14.63;11.50;;;14.00;65.70;;;;;;5002976;28;20450;-74
2022/05/05 07:23:38;;;;;;;14.03;12.20;;;14.10;65.70;;;;;;4995236;28;20946;-74
2022/05/05 07:26:05;;;;;;;12.03;10.77;;;14.20;65.10;;;;;;4995595;28;20436;-75
2022/05/05 07:28:32;;;;;;;16.30;11.23;;;14.30;65.70;;;;;;4999570;28;20442;-74
2022/05/05 07:31:01;;;;;;;12.80;11.30;;;14.40;64.90;;;;;;5000809;28;20476;-75
2022/05/05 07:33:28;;;;;;;16.83;11.60;;;14.40;63.30;;;;;;5002348;28;20434;-74
2022/05/05 07:35:55;;;;;;;13.40;11.03;;;14.40;64.60;;;;;;4992904;28;20909;-75
2022/05/05 07:38:22;;;;;;;12.37;11.03;;;14.40;64.60;;;;;;4977161;28;20927;-76
2022/05/05 07:40:49;;;;;;;14.93;12.03;;;14.50;65.40;;;;;;4992863;28;20453;-75
2022/05/05 07:43:16;;;;;;;12.87;11.57;;;14.40;64.50;;;;;;4998719;28;20488;-74
2022/05/05 07:45:43;;;;;;;13.60;11.53;;;14.60;66.10;;;;;;4997708;28;20456;-74
2022/05/05 07:48:11;;;;;;;13.17;11.73;;;14.80;65.80;;;;;;4998724;28;20426;-76
2022/05/05 07:50:38;;;;;;;13.93;12.30;;;14.50;66.50;;;;;;5001168;28;20493;-76
2022/05/05 07:53:05;;;;;;;12.97;11.67;;;14.70;67.30;;;;;;5003284;28;20472;-75
2022/05/05 07:55:32;;;;;;;13.40;12.00;;;14.80;66.10;;;;;;5008517;28;20985;-75
2022/05/05 07:57:59;;;;;;;15.60;13.83;;;14.80;66.20;;;;;;4996165;28;20449;-75
2022/05/05 08:00:26;;;;;;;16.90;14.37;;;14.50;67.60;;;;;;4994640;28;20479;-75
2022/05/05 08:02:53;;;;;;;16.17;14.13;;;14.50;69.50;;;;;;4995396;28;20466;-74
2022/05/05 08:05:21;;;;;;;15.80;14.10;;;14.40;70.40;;;;;;4995155;28;20469;-75
2022/05/05 08:07:49;;;;;;;17.80;15.87;;;14.20;73.20;;;;;;4997545;28;20521;-73
2022/05/05 08:10:18;;;;;;;16.43;14.60;;;14.00;76.00;;;;;;4996892;28;20466;-75
2022/05/05 08:12:46;;;;;;;17.67;15.57;;;14.00;78.80;;;;;;5004564;28;20930;-76
2022/05/05 08:15:14;;;;;;;17.87;15.90;;;14.00;77.90;;;;;;5017475;28;20491;-76
2022/05/05 08:17:41;;;;;;;19.98;16.95;;;13.90;79.80;;;;;;5015491;28;20546;-76
2022/05/05 08:20:09;;;;;;;19.88;17.48;;;13.70;81.20;;;;;;5014267;28;20211;-75
2022/05/05 08:22:38;;;;;;;26.83;20.10;;;13.60;81.30;;;;;;5015254;28;20207;-76
2022/05/05 08:30:36;;;;;;;24.02;18.17;;;13.50;81.70;;;;;;4997100;28;20684;-77
2022/05/05 08:33:03;;;;;;;24.70;20.02;;;13.30;83.50;;;;;;5014138;28;20527;-76
2022/05/05 08:35:30;;;;;;;22.92;18.88;;;13.30;86.50;;;;;;5013942;28;20234;-75
2022/05/05 08:37:58;;;;;;;20.35;18.02;;;13.30;87.50;;;;;;5013478;28;20215;-75
2022/05/05 08:40:27;;;;;;;24.38;19.17;;;13.40;87.20;;;;;;5013945;28;20231;-76
2022/05/05 08:42:54;;;;;;;22.30;19.52;;;13.40;87.30;;;;;;5014721;28;20211;-76
2022/05/05 08:45:21;;;;;;;23.42;18.63;;;13.30;86.40;;;;;;5015103;28;20295;-75
2022/05/05 08:47:48;;;;;;;23.75;19.38;;;13.30;87.20;;;;;;5014599;28;20303;-75
2022/05/05 08:50:15;;;;;;;26.20;19.58;;;13.30;88.00;;;;;;5013750;28;20643;-76
2022/05/05 08:52:47;;;;;;;23.67;19.10;;;13.30;88.50;;;;;;5020020;28;20238;-76
2022/05/05 08:55:17;;;;;;;22.40;19.45;;;13.30;87.20;;;;;;5004761;28;20247;-75
2022/05/05 08:57:44;;;;;;;24.58;20.85;;;13.30;86.90;;;;;;4996979;28;20208;-75
2022/05/05 09:00:14;;;;;;;24.20;20.30;;;13.30;87.50;;;;;;4999133;28;20204;-75
2022/05/05 09:02:41;;;;;;;27.10;20.75;;;13.30;87.90;;;;;;5005216;28;20579;-75
2022/05/05 09:05:09;;;;;;;22.08;19.67;;;13.40;87.70;;;;;;5001284;28;20290;-75
2022/05/05 09:07:50;;;;;;;25.55;20.60;;;13.40;86.90;;;;;;5007814;28;20208;-74
2022/05/05 09:10:20;;;;;;;26.10;21.60;;;13.50;88.40;;;;;;5016168;28;20241;-75
2022/05/05 09:13:00;;;;;;;24.60;20.35;;;13.40;88.50;;;;;;5006946;28;20787;-75
2022/05/05 09:15:32;;;;;;;22.23;19.85;;;13.30;89.70;;;;;;4998219;28;20270;-75
2022/05/05 09:18:12;;;;;;;25.40;20.20;;;13.30;90.50;;;;;;4995808;28;20209;-76
2022/05/05 09:20:40;;;;;;;25.33;20.38;;;13.30;90.80;;;;;;4978912;28;20224;-77
2022/05/05 09:23:07;;;;;;;26.05;20.73;;;13.20;90.80;;;;;;4980714;28;20213;-76
2022/05/05 09:25:48;;;;;;;24.35;21.75;;;13.10;91.40;;;;;;4978978;28;20216;-77
2022/05/05 09:28:19;;;;;;;24.10;21.55;;;13.00;92.70;;;;;;4980329;28;20235;-77
2022/05/05 09:30:50;;;;;;;27.30;21.38;;;13.10;93.00;;;;;;4981666;28;20229;-77
2022/05/05 09:33:18;;;;;;;30.50;21.90;;;13.10;92.80;;;;;;4982537;28;20696;-74
2022/05/05 09:35:55;;;;;;;29.48;20.17;;;13.10;92.60;;;;;;4980817;28;20260;-76
2022/05/05 09:38:22;;;;;;;26.92;20.23;;;13.10;91.80;;;;;;4982535;28;20212;-76
2022/05/05 09:41:04;;;;;;;23.13;18.73;;;13.00;91.60;;;;;;4979862;28;20303;-77
2022/05/05 09:43:31;;;;;;;23.60;18.55;;;13.10;91.00;;;;;;4982140;28;20213;-76
2022/05/05 09:45:59;;;;;;;21.35;17.20;;;13.00;87.30;;;;;;4980982;28;20215;-76
2022/05/05 09:48:26;;;;;;;26.58;18.65;;;13.00;87.20;;;;;;4980860;28;20209;-76
2022/05/05 09:50:53;;;;;;;21.95;16.70;;;13.10;83.30;;;;;;4984892;28;20234;-77
2022/05/05 09:58:57;;;;;;;25.13;18.75;;;13.20;84.50;;;;;;4978379;28;20332;-77
2022/05/05 10:01:31;;;;;;;27.65;20.20;;;13.30;87.90;;;;;;4981788;28;20705;-77
2022/05/05 10:04:03;;;;;;;25.83;20.40;;;13.30;89.20;;;;;;4997874;28;20278;-77
2022/05/05 10:06:31;;;;;;;23.40;19.75;;;13.40;90.10;;;;;;4996078;28;20188;-76
2022/05/05 10:09:03;;;;;;;22.98;19.52;;;13.40;89.90;;;;;;4996180;28;20212;-76
2022/05/05 10:11:31;;;;;;;24.00;18.67;;;13.50;88.60;;;;;;4977972;28;20589;-77
2022/05/05 10:14:00;;;;;;;23.58;18.85;;;13.50;87.60;;;;;;4991768;28;20304;-76
2022/05/05 10:16:30;;;;;;;21.55;18.15;;;13.50;85.30;;;;;;4989648;28;20567;-76
2022/05/05 10:18:57;;;;;;;21.67;18.88;;;13.40;85.20;;;;;;4995716;28;20209;-76
2022/05/05 10:21:31;;;;;;;21.42;18.50;;;13.40;83.30;;;;;;4996081;28;20320;-75
2022/05/05 10:24:07;;;;;;;19.63;17.60;;;13.30;81.90;;;;;;4986031;28;20200;-75
2022/05/05 10:26:36;;;;;;;20.55;16.63;;;13.30;82.30;;;;;;4976433;28;20213;-76
2022/05/05 10:29:03;;;;;;;23.05;16.35;;;13.40;80.40;;;;;;4976829;28;20256;-75
2022/05/05 10:31:43;;;;;;;20.50;17.10;;;13.40;78.10;;;;;;4976650;28;20245;-75
2022/05/05 10:34:16;;;;;;;21.90;16.80;;;13.30;75.90;;;;;;4987530;28;20208;-75
2022/05/05 10:37:01;;;;;;;18.48;15.13;;;13.30;75.70;;;;;;4996593;28;20886;-75
2022/05/05 10:39:42;;;;;;;21.23;15.40;;;13.40;75.60;;;;;;4983039;28;20228;-76
2022/05/05 10:42:23;;;;;;;23.80;16.73;;;13.30;73.70;;;;;;4976652;28;20641;-75
2022/05/05 10:45:20;;;;;;;19.75;16.23;;;13.30;74.00;;;;;;4991473;28;20215;-75
2022/05/05 10:48:15;;;;;;;21.20;14.90;;;13.50;72.90;;;;;;4995546;28;20218;-75
2022/05/05 10:50:50;;;;;;;20.63;15.73;;;13.50;70.70;;;;;;4976725;28;20233;-77
2022/05/05 10:53:29;;;;;;;17.38;14.60;;;13.60;69.40;;;;;;4978461;28;20203;-75
2022/05/05 10:55:56;;;;;;;17.58;13.75;;;13.60;70.80;;;;;;4978503;28;20700;-76
2022/05/05 10:59:03;;;;;;;17.05;15.35;;;13.60;69.90;;;;;;4981368;28;20213;-76
2022/05/05 11:01:33;;;;;;;21.73;15.20;;;13.70;68.00;;;;;;4980294;28;20281;-77
2022/05/05 11:04:08;;;;;;;17.60;15.40;;;13.70;66.40;;;;;;4984119;28;20208;-75
2022/05/05 11:06:38;;;;;;;17.00;14.80;;;13.70;66.50;;;;;;4981953;28;20303;-76
2022/05/05 11:09:05;;;;;;;19.03;14.20;;;13.70;68.60;;;;;;4979104;28;20208;-77
2022/05/05 11:11:41;;;;;;;18.27;14.55;;;13.80;67.80;;;;;;4979465;28;20480;-78
2022/05/05 11:22:57;;;;;;;16.55;14.75;;;14.00;68.00;;;;;;4983499;28;20464;-76
2022/05/05 11:25:24;;;;;;;17.30;14.87;;;14.00;69.00;;;;;;4977191;28;20693;-75
2022/05/05 11:27:56;;;;;;;22.73;16.30;;;14.00;71.30;;;;;;4977994;28;20525;-78
2022/05/05 11:30:24;;;;;;;17.77;15.50;;;14.20;70.90;;;;;;4977815;28;20479;-76
2022/05/05 11:32:51;;;;;;;22.00;17.20;;;14.30;71.20;;;;;;4976929;28;20525;-77
2022/05/05 11:35:20;;;;;;;23.80;16.40;;;14.40;71.60;;;;;;4984338;28;20545;-76
2022/05/05 11:37:48;;;;;;;21.17;17.07;;;14.40;71.60;;;;;;4995432;28;20430;-76
2022/05/05 11:40:15;;;;;;;17.33;15.20;;;14.40;71.60;;;;;;4997595;28;20498;-76
2022/05/05 11:45:27;;;;;;;21.20;16.63;;;14.50;69.80;;;;;;4983601;28;20415;-76
2022/05/05 11:47:55;;;;;;;19.37;17.13;;;14.70;69.90;;;;;;4994717;28;20426;-76
2022/05/05 11:50:22;;;;;;;26.60;17.10;;;14.80;66.50;;;;;;4995681;28;20438;-76
2022/05/05 11:52:49;;;;;;;23.40;19.20;;;15.00;65.60;;;;;;5000332;28;21014;-76
2022/05/05 11:55:19;;;;;;;23.73;16.07;;;14.70;67.70;;;;;;4997572;28;20461;-76
2022/05/05 11:57:49;;;;;;;18.57;15.50;;;14.90;65.10;;;;;;4992653;28;20448;-77
2022/05/05 12:03:06;;;;;;;22.20;15.97;;;15.30;63.50;;;;;;4991504;28;20460;-76
2022/05/05 12:05:33;;;;;;;18.17;14.83;;;15.50;61.10;;;;;;4993097;28;20748;-75
2022/05/05 12:08:00;;;;;;;16.80;15.03;;;15.60;59.60;;;;;;5001228;28;20434;-75
2022/05/05 12:10:35;;;;;;;16.57;13.63;;;15.70;59.40;;;;;;4992536;28;20492;-76
2022/05/05 12:13:02;;;;;;;17.80;13.27;;;15.70;58.80;;;;;;4982402;28;20486;-76
2022/05/05 12:15:29;;;;;;;19.70;15.67;;;15.80;57.50;;;;;;4981098;28;20480;-77
2022/05/05 12:17:58;;;;;;;20.80;15.23;;;15.70;58.00;;;;;;4978780;28;20551;-76
2022/05/05 12:20:29;;;;;;;19.07;14.93;;;15.50;58.20;;;;;;4997759;28;20471;-76
2022/05/05 12:22:57;;;;;;;18.27;14.90;;;15.50;59.00;;;;;;4994617;28;20417;-76
2022/05/05 12:25:25;;;;;;;16.13;14.00;;;15.60;59.20;;;;;;4975428;28;20428;-76
2022/05/05 12:28:04;;;;;;;18.63;15.00;;;15.60;59.50;;;;;;4974742;28;20459;-76
2022/05/05 12:30:32;;;;;;;17.33;14.37;;;15.50;59.80;;;;;;4977286;28;20997;-76
2022/05/05 12:32:59;;;;;;;21.40;15.80;;;15.50;60.50;;;;;;4981846;28;20881;-75
2022/05/05 12:35:32;;;;;;;18.13;14.87;;;15.50;60.80;;;;;;4982233;28;20468;-75
2022/05/05 12:38:00;;;;;;;18.90;14.93;;;15.30;63.50;;;;;;4982586;28;20853;-77
2022/05/05 12:40:28;;;;;;;21.67;14.90;;;15.40;60.90;;;;;;4992048;28;20848;-76
2022/05/05 12:43:01;;;;;;;19.00;14.10;;;15.60;60.40;;;;;;4994054;28;20427;-77
2022/05/05 12:45:28;;;;;;;20.90;14.40;;;15.60;59.60;;;;;;4994853;28;20411;-76
2022/05/05 12:47:56;;;;;;;20.43;14.47;;;15.40;60.20;;;;;;4987262;28;20456;-77
2022/05/05 12:50:33;;;;;;;21.13;13.93;;;15.60;60.00;;;;;;4976409;28;20506;-76
2022/05/05 13:01:22;;;;;;;15.13;13.40;;;16.10;57.70;;;;;;4973547;28;20542;-75
2022/05/05 13:03:50;;;;;;;18.10;13.60;;;16.30;57.60;;;;;;4974031;28;20457;-76
2022/05/05 13:06:18;;;;;;;16.57;14.20;;;16.60;55.40;;;;;;4973560;28;20457;-75
2022/05/05 13:08:46;;;;;;;19.20;14.83;;;16.60;55.40;;;;;;4974289;28;20431;-77
2022/05/05 13:11:14;;;;;;;22.80;13.83;;;16.20;57.00;;;;;;4973347;28;20455;-76
2022/05/05 13:13:40;;;;;;;21.80;16.57;;;15.90;60.60;;;;;;4973298;28;20815;-76
2022/05/05 13:16:07;;;;;;;18.13;13.70;;;16.50;55.60;;;;;;4974244;28;20554;-76
2022/05/05 13:18:34;;;;;;;20.33;14.47;;;16.70;55.50;;;;;;4973899;28;20454;-75
2022/05/05 13:21:01;;;;;;;17.17;14.03;;;16.70;55.50;;;;;;4973505;28;20503;-76
2022/05/05 13:23:30;;;;;;;16.77;14.80;;;16.70;55.50;;;;;;4973657;28;20467;-76
2022/05/05 13:25:57;;;;;;;16.07;13.30;;;16.90;55.70;;;;;;4974192;28;20431;-76
2022/05/05 13:28:23;;;;;;;15.00;13.50;;;16.90;55.20;;;;;;4974418;28;20947;-77
2022/05/05 13:30:50;;;;;;;16.17;12.80;;;17.00;54.40;;;;;;4974006;28;20555;-76